Logo AVAMET
Benvolgut visitant, si us plau, ingressa Recuperar contrasenya

Inforatge Montserrat

Dades diàries. Acumulats / Últims 30 dies disponibles

Data Temperatura (°C) Humitat rel. (%) Pressió rel. (hPa) Vent (km/h) Precipitació
Mínima Mitjana Màxima Amplitud
tèrmica
Mínima Mitjana Màxima Mínima Mitjana Màxima Predom. Mitjana Ràfega
màxima
Total
(mm)
Índex-n
Mínima Mitjana Màxima Mínima Mitjana Màxima n
0 a 1
P0 max
mm 5'
Dades mensuals acumulades fins l'últim dia disponible
11/2019 5,3 10,6 18,9 14,2 13,8 18,4 26,7 21,4 24 56 85 1.001 1.012 1.023   10,6 61,2 3,0
Dades anuals acumulades fins l'últim dia disponible
2019 0,8 13,3 26,1 18,2 11,5 23,7 39,8 39,0 11 62 94 993 1.019 1.037   5,8 72,4 348,6
Últims 30 dies disponibles
21-11-2019 7,3     11,5     15,3 8,0 60 73 84 1.009 1.010 1.012 WSW 2,9 25,7 0,0
20-11-2019 7,6     11,4     16,2 8,6 41 59 73 1.011 1.013 1.017 WNW 4,2 24,1 0,0
19-11-2019 5,3     10,4     16,1 10,8 34 53 68 1.015 1.017 1.019 WNW 8,7 32,2 0,0
18-11-2019 7,2     11,1     15,1 7,9 36 58 80 1.009 1.013 1.018 WNW 5,6 30,6 0,0
17-11-2019 5,6     9,9     14,3 8,7 46 62 79 1.011 1.014 1.017 W 15,4 53,1 0,2
16-11-2019 6,1     10,4     16,4 10,3 24 53 72 1.008 1.013 1.016 WNW 6,8 32,2 0,0
15-11-2019 7,6     10,5     13,8 6,2 47 61 77 1.002 1.005 1.008 WNW 11,7 51,5 0,2
14-11-2019 9,8     12,9     16,2 6,4 52 62 80 1.001 1.004 1.011 W 12,1 54,7 0,0
13-11-2019 11,0     14,8     19,6 8,6 39 66 85 1.006 1.009 1.013 WNW 7,4 49,9 2,6 0,58 1,00
12-11-2019 9,6     13,8     19,1 9,5 31 44 58 1.011 1.013 1.015 WNW 6,0 38,6 0,0
11-11-2019 8,6     12,6     17,2 8,6 39 51 63 1.012 1.015 1.016 WNW 9,3 38,6 0,0
10-11-2019 9,6     12,6     16,5 6,9 30 51 70 1.012 1.014 1.016 WNW 10,5 43,5 0,0
09-11-2019 9,7     13,3     17,2 7,5 35 49 69 1.015 1.018 1.021 WNW 14,6 45,1 0,0
08-11-2019 8,9     12,2     16,0 7,1 36 50 65 1.011 1.014 1.018 WNW 14,5 49,9 0,0
07-11-2019 11,9     15,2     20,5 8,6 25 53 70 1.009 1.011 1.015 WNW 12,7 54,7 0,0
06-11-2019 11,8     15,7     21,3 9,5 30 49 67 1.013 1.014 1.016 WNW 9,5 33,8 0,0
05-11-2019 13,6     16,4     19,1 5,5 39 53 67 1.007 1.011 1.014 WNW 12,6 53,1 0,0
04-11-2019 16,5     19,4     22,9 6,4 43 55 68 1.008 1.011 1.013 W 15,1 61,2 0,0
03-11-2019 17,3     19,7     23,1 5,8 32 52 80 1.002 1.006 1.012 WNW 15,8 61,2 0,0
02-11-2019 18,6     21,7     24,8 6,2 44 60 74 1.006 1.011 1.015 W 14,0 59,5 0,0
01-11-2019 18,9     22,4     26,7 7,8 48 62 74 1.016 1.019 1.023 W 12,9 40,2 0,0
31-10-2019 19,5     22,0     26,7 7,2 42 58 70 1.020 1.022 1.023 SO 6,8 35,4 0,0
30-10-2019 16,2     19,9     26,2 10,0 46 66 79 1.021 1.022 1.023 WNW 4,5 27,4 0,0
29-10-2019 12,8     18,6     26,3 13,5 46 71 86 1.017 1.019 1.021 W 5,3 29,0 0,0
28-10-2019 12,2     16,3     22,7 10,5 61 81 87 1.018 1.020 1.023 SE 1,1 17,7 0,2
27-10-2019 11,6     16,5     22,8 11,2 52 80 88 1.022 1.023 1.025 E 1,6 20,9 0,0
26-10-2019 11,4     16,5     22,6 11,2 52 75 87 1.022 1.023 1.025 E 1,8 17,7 0,0
25-10-2019 13,7     17,6     24,7 11,0 34 61 81 1.022 1.024 1.025 WNW 5,3 29,0 0,0
24-10-2019 11,0     15,8     21,2 10,2 43 61 80 1.013 1.017 1.024 WNW 10,3 35,4 0,0
23-10-2019 11,3     13,6     17,1 5,8 53 69 79 1.007 1.009 1.013 W 8,4 35,4 0,0
Últims 13 mesos disponibles
10/2019 10,7 15,0 19,6 19,4 15,1 25,0 33,3 22,6 38 63 83 1.009 1.018 1.024 W 4,8 42,6 20,8
09/2019 14,4 18,8 21,8 22,9 19,6 27,5 33,6 19,2 33 70 83 1.012 1.020 1.027 SSE 5,2 72,4 87,4
08/2019 16,9 20,8 26,1 25,8 26,3 31,2 39,8 22,9 37 67 78 1.013 1.018 1.022 SSE 5,0 46,7 11,8
07/2019 18,7 21,0 24,7 26,2 26,6 31,5 38,2 19,5 40 63 78 1.008 1.016 1.023 SSE 5,2 45,0 12,4
06/2019 10,5 16,2 21,3 22,3 15,4 27,5 36,4 25,9 38 60 76 1.010 1.017 1.024 SSE 5,1 61,1 0,0
05/2019 8,2 13,0 19,4 18,2 18,1 23,3 30,9 22,7 49 64 83 1.007 1.017 1.026 SSE 5,0 59,6 12,2
04/2019 6,3 10,2 13,5 14,5 13,9 19,5 28,6 22,3 38 65 93 1.001 1.015 1.027 OSO 7,5 68,5 178,2
03/2019 3,8 7,7 14,1 13,7 11,5 20,0 27,3 23,5 34 56 90 1.017 1.025 1.031 SSE 4,5 53,7 22,6
02/2019 1,1 5,8 11,4 11,4 12,4 18,3 26,3 25,2 35 62 80 996 1.026 1.035 SO 5,1 69,3 0,2
01/2019 0,8 6,0 11,4 10,6 12,1 16,4 21,4 20,6 38 55 77 1.004 1.021 1.032 O 6,8 69,3 0,0
12/2018 2,7 8,2 13,6 12,5 13,9 17,8 23,6 20,9 46 66 84 1.010 1.027 1.032 O 7,4 63,0 7,4
11/2018 7,8 10,9 15,4 13,8 13,4 17,6 24,1 16,3 47 72 94 1.003 1.017 1.026 O 6,3 68,5 229,2
10/2018 6,5 13,6 17,9 17,6 13,1 22,5 29,7 23,2 46 72 91 1.002 1.016 1.027 SSE 4,4 58,0 111,6
Tots els anys disponibles
2018 0,4 13,5 25,3 17,7 7,5 22,5 37,3 36,9 32 66 94 994 1.018 1.036 SSE 6,3 80,6 698,8
2017 0,7 13,8 24,5 18,7 10,7 24,0 36,5 35,8 28 66 90 999 1.021 1.037 SSE 3,1 83,3 226,4
Temperatura (°C)
Humitat relativa (%)
Velocitat del vent i ràfega màxima (km/h)
Direcció del vent (°)
Pressió (hPa)
Precipitació (mm)
Nota sobre les dades: s'avisa a l'usuari de la provisionalitat i no oficialitat d'aquestes dades
Logo AVAMET blanc
Web allotjada a Sollutia
Llicència de Creative CommonsLa web d'AVAMET i els seus continguts estan subjectes a una llicència de
Reconeixement - No Comercial - Compartir igual
Últimes estacions: Faura (Inforatge), Benifairó de les Valls (Inforatge), Xàbia - Les Valls (Soci), Xàbia - Alt de la Granadella (Soci), Villena - Sierra de Salinas (Soci), Sueca - Centre (Inforatge) - - -